createdAt,value
2019-04-28T00:02:12.131Z,44.70
2019-04-28T00:04:41.607Z,45.50
2019-04-28T00:07:11.913Z,46.20
2019-04-28T00:09:41.842Z,44.50
2019-04-28T00:12:11.604Z,44.50
2019-04-28T00:14:41.808Z,44.70
2019-04-28T00:17:11.773Z,45.40
2019-04-28T00:19:41.653Z,45.40
2019-04-28T00:22:26.529Z,45.20
2019-04-28T00:24:58.185Z,45.00
2019-04-28T00:27:28.488Z,45.20
2019-04-28T00:29:57.618Z,45.20
2019-04-28T00:32:27.206Z,45.90
2019-04-28T00:34:56.549Z,46.60
2019-04-28T00:37:26.900Z,46.20
2019-04-28T00:39:56.275Z,46.90
2019-04-28T00:42:26.898Z,46.40
2019-04-28T00:44:56.511Z,46.00
2019-04-28T00:47:26.129Z,45.90
2019-04-28T00:49:56.593Z,45.30
2019-04-28T00:52:26.310Z,45.30
2019-04-28T00:54:56.234Z,45.20
2019-04-28T00:57:26.495Z,46.30
2019-04-28T00:59:58.672Z,46.30
2019-04-28T01:02:31.545Z,45.20
2019-04-28T01:05:01.592Z,46.10
2019-04-28T01:07:32.953Z,49.40
2019-04-28T01:10:01.390Z,47.70
2019-04-28T01:12:31.175Z,48.20
2019-04-28T01:15:04.589Z,48.20
2019-04-28T01:20:31.978Z,49.10
2019-04-28T01:23:01.515Z,49.10
2019-04-28T01:25:31.738Z,49.50
2019-04-28T01:28:00.710Z,50.00
2019-04-28T01:30:35.559Z,49.90
2019-04-28T01:33:20.581Z,50.30
2019-04-28T01:35:50.222Z,50.80
2019-04-28T01:38:20.486Z,52.00
2019-04-28T01:40:49.967Z,51.90
2019-04-28T01:43:19.674Z,52.90
2019-04-28T01:45:50.235Z,53.00
2019-04-28T01:48:19.882Z,52.80
2019-04-28T01:50:49.970Z,52.80
2019-04-28T01:53:19.938Z,52.20
2019-04-28T01:55:49.533Z,52.10
2019-04-28T01:58:20.400Z,51.70
2019-04-28T02:00:50.394Z,51.50
2019-04-28T02:03:20.584Z,52.10
2019-04-28T02:05:50.142Z,51.90
2019-04-28T02:08:20.431Z,50.70
2019-04-28T02:10:50.112Z,51.20
2019-04-28T02:13:19.847Z,51.20
2019-04-28T02:15:50.257Z,51.90
2019-04-28T02:18:19.996Z,51.80
2019-04-28T02:20:51.174Z,53.70
2019-04-28T02:23:20.360Z,51.90
2019-04-28T02:25:50.136Z,51.90
2019-04-28T02:28:19.914Z,52.00
2019-04-28T02:30:53.564Z,52.30
2019-04-28T02:33:21.255Z,52.70
2019-04-28T02:35:51.142Z,52.40
2019-04-28T02:38:21.061Z,53.00
2019-04-28T02:40:50.373Z,51.80
2019-04-28T02:43:20.898Z,53.20
2019-04-28T02:45:53.064Z,52.60
2019-04-28T02:48:21.144Z,52.30
2019-04-28T02:50:51.184Z,54.40
2019-04-28T02:53:21.879Z,57.20
2019-04-28T02:55:51.442Z,58.20
2019-04-28T02:58:22.377Z,59.00
2019-04-28T03:01:02.651Z,59.20
2019-04-28T03:03:21.174Z,60.90
2019-04-28T03:05:51.236Z,62.50
2019-04-28T03:08:21.387Z,62.90
2019-04-28T03:10:50.895Z,64.40
2019-04-28T03:13:21.068Z,67.10
2019-04-28T03:15:51.667Z,69.10
2019-04-28T03:18:21.382Z,70.00
2019-04-28T03:20:51.479Z,70.90
2019-04-28T03:23:20.630Z,71.00
2019-04-28T03:25:54.660Z,73.10
2019-04-28T03:28:27.970Z,94.90
2019-04-28T03:31:06.583Z,77.50
2019-04-28T03:33:34.502Z,77.50
2019-04-28T03:36:07.506Z,77.70
2019-04-28T03:38:32.583Z,76.20
2019-04-28T03:41:02.953Z,78.80
2019-04-28T03:43:32.405Z,78.70
2019-04-28T03:46:20.282Z,79.10
2019-04-28T03:48:50.739Z,78.70
2019-04-28T03:51:20.934Z,81.00
2019-04-28T03:53:50.542Z,80.20
2019-04-28T03:56:17.811Z,81.40
2019-04-28T03:58:47.429Z,83.40
2019-04-28T04:01:16.737Z,85.10
2019-04-28T04:03:46.350Z,87.40
2019-04-28T04:06:15.575Z,90.30
2019-04-28T04:08:45.678Z,90.20
2019-04-28T04:11:20.331Z,88.70
2019-04-28T04:13:51.407Z,88.70
2019-04-28T04:19:14.531Z,90.30
2019-04-28T04:21:44.013Z,91.00
2019-04-28T04:24:13.395Z,91.70
2019-04-28T04:26:43.188Z,90.40
2019-04-28T04:29:13.078Z,89.20
2019-04-28T04:31:42.714Z,90.90
2019-04-28T04:34:11.781Z,91.90
2019-04-28T04:36:41.918Z,92.20
2019-04-28T04:39:11.159Z,92.70
2019-04-28T04:41:43.478Z,92.40
2019-04-28T04:44:11.171Z,92.90
2019-04-28T04:46:41.442Z,93.00
2019-04-28T04:49:10.747Z,95.20
2019-04-28T04:51:43.447Z,93.40
2019-04-28T04:54:10.855Z,94.50
2019-04-28T04:56:41.031Z,94.60
2019-04-28T04:59:10.997Z,94.60
2019-04-28T05:01:50.661Z,95.70
2019-04-28T05:04:29.601Z,95.10
2019-04-28T05:06:59.639Z,95.90
2019-04-28T05:09:29.540Z,96.90
2019-04-28T05:11:59.769Z,98.00
2019-04-28T05:14:29.776Z,98.00
2019-04-28T05:16:58.138Z,97.40
2019-04-28T05:19:27.568Z,95.50
2019-04-28T05:22:00.055Z,96.60
2019-04-28T05:24:30.367Z,96.60
2019-04-28T05:26:59.641Z,97.60
2019-04-28T05:29:30.602Z,98.10
2019-04-28T05:32:03.164Z,98.30
2019-04-28T05:34:29.798Z,98.20
2019-04-28T05:37:00.560Z,99.20
2019-04-28T05:39:29.782Z,99.00
2019-04-28T05:42:00.632Z,98.80
2019-04-28T05:44:29.928Z,99.90
2019-04-28T05:46:59.561Z,98.40
2019-04-28T05:49:41.251Z,99.00
2019-04-28T05:52:17.145Z,99.90
2019-04-28T05:54:49.639Z,99.90
2019-04-28T05:57:20.667Z,99.90
2019-04-28T05:59:50.560Z,99.90
2019-04-28T06:02:22.515Z,99.90
2019-04-28T06:04:52.025Z,99.90
2019-04-28T06:07:25.619Z,99.90
2019-04-28T06:09:55.601Z,99.90
2019-04-28T06:12:24.904Z,99.90
2019-04-28T06:14:54.134Z,99.90
2019-04-28T06:17:23.799Z,99.90
2019-04-28T06:19:53.255Z,99.90
2019-04-28T06:22:23.819Z,99.90
2019-04-28T06:24:53.546Z,99.90
2019-04-28T06:27:23.259Z,99.90
2019-04-28T06:29:52.525Z,99.90
2019-04-28T06:32:21.900Z,99.90
2019-04-28T06:34:51.064Z,99.90
2019-04-28T06:37:20.648Z,99.90
2019-04-28T06:39:50.255Z,99.90
2019-04-28T06:42:19.786Z,99.90
2019-04-28T06:44:49.239Z,99.90
2019-04-28T06:47:19.472Z,99.90
2019-04-28T06:49:48.671Z,99.90
2019-04-28T06:52:18.114Z,99.90
2019-04-28T06:54:47.662Z,99.90
2019-04-28T06:57:17.265Z,99.90
2019-04-28T06:59:46.798Z,99.90
2019-04-28T07:02:16.390Z,99.90
2019-04-28T07:04:45.857Z,99.90
2019-04-28T07:07:15.230Z,99.90
2019-04-28T07:09:44.467Z,99.90
2019-04-28T07:12:13.663Z,99.90
2019-04-28T07:14:43.124Z,99.90
2019-04-28T07:17:12.230Z,99.90
2019-04-28T07:19:41.712Z,99.90
2019-04-28T07:22:16.594Z,99.90
2019-04-28T07:24:46.111Z,99.90
2019-04-28T07:27:15.470Z,99.90
2019-04-28T07:29:45.236Z,99.90
2019-04-28T07:32:14.702Z,99.90
2019-04-28T07:34:44.092Z,99.90
2019-04-28T07:37:13.681Z,99.90
2019-04-28T07:39:42.982Z,99.90
2019-04-28T07:42:12.203Z,99.90
2019-04-28T07:44:41.484Z,99.90
2019-04-28T07:47:11.133Z,99.90
2019-04-28T07:49:40.311Z,99.90
2019-04-28T07:52:13.391Z,99.90
2019-04-28T07:54:42.995Z,99.90
2019-04-28T07:57:12.174Z,99.90
2019-04-28T07:59:42.402Z,99.90
2019-04-28T08:02:12.763Z,99.90
2019-04-28T08:04:42.457Z,99.90
2019-04-28T08:07:11.962Z,99.90
2019-04-28T08:09:41.125Z,99.90
2019-04-28T08:12:10.750Z,99.90
2019-04-28T08:14:40.770Z,99.90
2019-04-28T08:17:10.049Z,99.90
2019-04-28T08:19:39.118Z,99.90
2019-04-28T08:22:08.724Z,99.90
2019-04-28T08:24:38.988Z,99.90
2019-04-28T08:27:08.215Z,99.90
2019-04-28T08:29:37.601Z,99.90
2019-04-28T08:32:12.369Z,99.90
2019-04-28T08:34:41.548Z,99.90
2019-04-28T08:37:10.392Z,99.90
2019-04-28T08:39:39.987Z,99.90
2019-04-28T08:42:09.175Z,99.90
2019-04-28T08:44:39.077Z,99.90
2019-04-28T08:47:08.054Z,99.90
2019-04-28T08:49:37.453Z,99.90
2019-04-28T08:52:06.866Z,99.90
2019-04-28T08:54:36.131Z,99.90
2019-04-28T08:57:05.419Z,99.90
2019-04-28T08:59:34.754Z,99.90
2019-04-28T09:02:04.240Z,99.90
2019-04-28T09:04:33.796Z,99.90
2019-04-28T09:07:03.128Z,99.90
2019-04-28T09:09:32.813Z,99.90
2019-04-28T09:12:02.026Z,99.90
2019-04-28T09:14:31.340Z,99.90
2019-04-28T09:17:00.743Z,99.90
2019-04-28T09:19:30.190Z,99.90
2019-04-28T09:21:59.590Z,99.90
2019-04-28T09:24:29.142Z,99.90
2019-04-28T09:26:58.920Z,99.90
2019-04-28T09:29:28.535Z,99.90
2019-04-28T09:31:57.937Z,99.90
2019-04-28T09:34:28.795Z,99.90
2019-04-28T09:36:58.287Z,99.90
2019-04-28T09:39:34.181Z,99.90
2019-04-28T09:42:08.950Z,99.90
2019-04-28T09:44:38.373Z,99.90
2019-04-28T09:47:08.016Z,99.90
2019-04-28T09:49:37.308Z,99.90
2019-04-28T09:52:06.610Z,99.90
2019-04-28T09:54:35.925Z,99.90
2019-04-28T09:57:05.308Z,99.90
2019-04-28T09:59:34.517Z,99.90
2019-04-28T10:02:03.940Z,99.90
2019-04-28T10:04:41.323Z,99.90
2019-04-28T10:07:03.391Z,99.90
2019-04-28T10:09:33.856Z,99.90
2019-04-28T10:12:03.375Z,99.90
2019-04-28T10:14:32.552Z,99.90
2019-04-28T10:17:01.802Z,99.90
2019-04-28T10:19:32.619Z,99.90
2019-04-28T10:22:01.231Z,99.90
2019-04-28T10:24:30.683Z,99.90
2019-04-28T10:27:00.317Z,99.90
2019-04-28T10:29:29.888Z,99.90
2019-04-28T10:31:59.333Z,99.90
2019-04-28T10:34:28.985Z,99.90
2019-04-28T10:36:58.459Z,99.90
2019-04-28T10:39:28.066Z,99.90
2019-04-28T10:41:57.339Z,99.90
2019-04-28T10:44:27.756Z,99.90
2019-04-28T10:46:57.316Z,99.90
2019-04-28T10:49:26.897Z,99.90
2019-04-28T10:51:59.573Z,99.90
2019-04-28T10:54:26.350Z,99.90
2019-04-28T10:56:55.651Z,99.90
2019-04-28T10:59:24.795Z,99.90
2019-04-28T11:01:54.096Z,99.90
2019-04-28T11:04:29.079Z,99.90
2019-04-28T11:06:58.322Z,99.90
2019-04-28T11:09:30.646Z,99.90
2019-04-28T11:11:57.698Z,99.90
2019-04-28T11:14:27.277Z,99.90
2019-04-28T11:16:56.880Z,99.90
2019-04-28T11:19:26.647Z,99.90
2019-04-28T11:21:56.102Z,99.90
2019-04-28T11:24:25.382Z,99.90
2019-04-28T11:26:54.814Z,99.90
2019-04-28T11:29:24.368Z,99.90
2019-04-28T11:31:53.591Z,99.90
2019-04-28T11:34:23.046Z,99.90
2019-04-28T11:36:52.535Z,99.90
2019-04-28T11:39:22.159Z,99.90
2019-04-28T11:41:51.741Z,99.90
2019-04-28T11:44:20.934Z,99.90
2019-04-28T11:46:50.358Z,99.90
2019-04-28T11:49:20.076Z,99.90
2019-04-28T11:51:49.560Z,99.90
2019-04-28T11:54:19.791Z,99.90
2019-04-28T11:56:49.239Z,99.90
2019-04-28T11:59:19.497Z,99.90
2019-04-28T12:01:49.950Z,99.90
2019-04-28T12:04:19.883Z,99.90
2019-04-28T12:06:49.520Z,99.90
2019-04-28T12:09:26.742Z,99.90
2019-04-28T12:11:57.395Z,99.90
2019-04-28T12:14:30.505Z,99.90
2019-04-28T12:20:04.495Z,99.90
2019-04-28T12:22:34.020Z,99.90
2019-04-28T12:25:03.918Z,99.90
2019-04-28T12:27:33.500Z,99.90
2019-04-28T12:30:02.715Z,99.90
2019-04-28T12:32:32.484Z,99.90
2019-04-28T12:35:02.075Z,99.90
2019-04-28T12:37:32.617Z,99.90
2019-04-28T12:40:01.926Z,99.90
2019-04-28T12:42:31.257Z,99.90
2019-04-28T12:45:00.762Z,99.90
2019-04-28T12:47:30.426Z,99.90
2019-04-28T12:49:59.681Z,99.90
2019-04-28T12:52:28.952Z,99.90
2019-04-28T12:54:58.196Z,99.90
2019-04-28T12:57:27.372Z,99.90
2019-04-28T12:59:58.579Z,99.90
2019-04-28T13:02:38.511Z,99.90
2019-04-28T13:05:09.618Z,99.90
2019-04-28T13:07:39.101Z,99.90
2019-04-28T13:10:09.686Z,99.90
2019-04-28T13:12:39.106Z,99.90
2019-04-28T13:15:08.489Z,99.90
2019-04-28T13:17:37.886Z,99.90
2019-04-28T13:20:07.334Z,99.90
2019-04-28T13:22:37.054Z,99.90
2019-04-28T13:25:07.305Z,99.90
2019-04-28T13:27:36.866Z,99.90
2019-04-28T13:30:06.789Z,99.90
2019-04-28T13:32:36.901Z,99.90
2019-04-28T13:35:06.577Z,99.90
2019-04-28T13:37:36.025Z,99.90
2019-04-28T13:40:10.637Z,99.90
2019-04-28T13:42:40.130Z,99.90
2019-04-28T13:45:09.890Z,99.90
2019-04-28T13:47:39.194Z,99.90
2019-04-28T13:50:10.581Z,99.90
2019-04-28T13:52:40.210Z,99.90
2019-04-28T13:55:15.270Z,99.90
2019-04-28T13:57:44.897Z,99.90
2019-04-28T14:00:14.701Z,99.90
2019-04-28T14:02:46.825Z,99.90
2019-04-28T14:05:22.721Z,99.90
2019-04-28T14:07:52.196Z,99.90
2019-04-28T14:10:21.929Z,99.90
2019-04-28T14:12:51.265Z,99.90
2019-04-28T14:15:20.698Z,99.90
2019-04-28T14:17:50.008Z,99.90
2019-04-28T14:20:19.253Z,99.90
2019-04-28T14:22:48.698Z,99.90
2019-04-28T14:25:18.332Z,99.90
2019-04-28T14:27:47.754Z,99.90
2019-04-28T14:30:19.085Z,99.90
2019-04-28T14:32:48.741Z,99.90
2019-04-28T14:35:18.255Z,99.90
2019-04-28T14:37:47.574Z,99.90
2019-04-28T14:40:17.036Z,99.90
2019-04-28T14:42:47.425Z,99.90
2019-04-28T14:45:16.847Z,99.90
2019-04-28T14:47:47.333Z,99.90
2019-04-28T14:50:16.906Z,99.90
2019-04-28T14:52:46.263Z,99.90
2019-04-28T14:55:15.542Z,99.90
2019-04-28T14:57:45.190Z,99.90
2019-04-28T15:00:14.749Z,99.90
2019-04-28T15:02:54.821Z,99.70
2019-04-28T15:05:25.317Z,99.90
2019-04-28T15:08:00.207Z,99.40
2019-04-28T15:10:35.224Z,98.90
2019-04-28T15:13:04.930Z,99.00
2019-04-28T15:15:34.327Z,99.70
2019-04-28T15:18:03.493Z,99.10
2019-04-28T15:20:32.790Z,99.20
2019-04-28T15:23:02.654Z,98.40
2019-04-28T15:25:32.109Z,98.80
2019-04-28T15:28:01.503Z,97.10
2019-04-28T15:30:31.465Z,96.60
2019-04-28T15:33:00.850Z,95.30
2019-04-28T15:35:30.175Z,94.80
2019-04-28T15:37:59.459Z,94.10
2019-04-28T15:40:28.733Z,94.10
2019-04-28T15:42:58.541Z,93.70
2019-04-28T15:45:28.066Z,92.40
2019-04-28T15:47:57.328Z,93.00
2019-04-28T15:50:27.244Z,88.60
2019-04-28T15:52:56.837Z,88.60
2019-04-28T15:55:34.001Z,84.00
2019-04-28T15:58:08.898Z,84.00
2019-04-28T16:00:38.285Z,77.80
2019-04-28T16:03:07.411Z,78.20
2019-04-28T16:05:36.818Z,79.90
2019-04-28T16:08:06.092Z,79.10
2019-04-28T16:10:35.510Z,77.30
2019-04-28T16:13:04.924Z,76.70
2019-04-28T16:15:34.398Z,76.60
2019-04-28T16:18:03.820Z,71.20
2019-04-28T16:20:34.210Z,69.60
2019-04-28T16:23:03.679Z,71.80
2019-04-28T16:25:33.140Z,62.00
2019-04-28T16:28:02.489Z,52.30
2019-04-28T16:30:32.292Z,42.60
2019-04-28T16:33:01.694Z,37.60
2019-04-28T16:35:31.162Z,34.10
2019-04-28T16:38:01.385Z,32.30
2019-04-28T16:40:31.716Z,32.30
2019-04-28T16:43:01.161Z,31.20
2019-04-28T16:45:30.886Z,31.70
2019-04-28T16:48:01.066Z,36.20
2019-04-28T16:50:30.421Z,36.20
2019-04-28T16:53:00.897Z,37.80
2019-04-28T16:55:36.868Z,37.80
2019-04-28T16:58:07.329Z,36.40
2019-04-28T17:00:41.875Z,34.30
2019-04-28T17:03:10.730Z,30.90
2019-04-28T17:05:40.195Z,29.10
2019-04-28T17:08:09.716Z,26.90
2019-04-28T17:10:39.004Z,24.60
2019-04-28T17:13:08.089Z,22.70
2019-04-28T17:15:37.137Z,20.80
2019-04-28T17:18:06.790Z,19.50
2019-04-28T17:20:36.305Z,18.20
2019-04-28T17:23:05.746Z,17.30
2019-04-28T17:25:35.220Z,16.80
2019-04-28T17:28:04.943Z,16.00
2019-04-28T17:30:35.483Z,16.40
2019-04-28T17:33:05.701Z,17.90
2019-04-28T17:35:36.212Z,18.90
2019-04-28T17:38:06.885Z,18.20
2019-04-28T17:40:35.756Z,16.10
2019-04-28T17:43:05.333Z,15.20
2019-04-28T17:45:34.802Z,15.80
2019-04-28T17:48:21.293Z,14.50
2019-04-28T17:50:51.009Z,14.10
2019-04-28T17:53:20.516Z,13.90
2019-04-28T17:55:50.118Z,14.00
2019-04-28T17:58:19.739Z,13.70
2019-04-28T18:03:49.054Z,13.10
2019-04-28T18:06:22.193Z,12.90
2019-04-28T18:08:51.686Z,12.80
2019-04-28T18:11:21.302Z,13.30
2019-04-28T18:13:50.554Z,13.10
2019-04-28T18:16:28.646Z,13.30
2019-04-28T18:19:01.943Z,13.20
2019-04-28T18:21:32.297Z,13.50
2019-04-28T18:24:01.824Z,13.50
2019-04-28T18:26:31.263Z,15.30
2019-04-28T18:29:00.678Z,16.30
2019-04-28T18:31:41.535Z,15.80
2019-04-28T18:34:13.592Z,15.70
2019-04-28T18:36:43.198Z,15.30
2019-04-28T18:39:18.138Z,15.40
2019-04-28T18:41:48.398Z,15.70
2019-04-28T18:44:19.814Z,15.10
2019-04-28T18:46:49.280Z,15.00
2019-04-28T18:49:18.564Z,15.50
2019-04-28T18:51:48.056Z,14.70
2019-04-28T18:54:17.482Z,14.00
2019-04-28T18:56:47.065Z,14.30
2019-04-28T18:59:16.950Z,14.30
2019-04-28T19:01:46.709Z,14.30
2019-04-28T19:04:16.339Z,14.90
2019-04-28T19:06:45.746Z,16.90
2019-04-28T19:09:28.541Z,19.30
2019-04-28T19:12:00.482Z,21.00
2019-04-28T19:14:31.738Z,22.40
2019-04-28T19:17:01.989Z,24.10
2019-04-28T19:19:32.333Z,25.10
2019-04-28T19:22:02.021Z,27.00
2019-04-28T19:24:31.476Z,27.10
2019-04-28T19:27:00.771Z,28.70
2019-04-28T19:29:29.946Z,27.80
2019-04-28T19:31:59.716Z,28.10
2019-04-28T19:34:29.257Z,29.20
2019-04-28T19:36:58.684Z,29.30
2019-04-28T19:39:27.976Z,30.80
2019-04-28T19:41:57.428Z,32.20
2019-04-28T19:44:27.318Z,32.70
2019-04-28T19:46:57.657Z,31.70
2019-04-28T19:49:26.942Z,31.70
2019-04-28T19:51:56.280Z,33.40
2019-04-28T19:54:26.012Z,35.10
2019-04-28T19:56:58.074Z,36.30
2019-04-28T19:59:28.683Z,37.20
2019-04-28T20:01:58.152Z,37.40
2019-04-28T20:04:27.600Z,37.40
2019-04-28T20:06:56.961Z,38.00
2019-04-28T20:09:26.059Z,38.70
2019-04-28T20:11:55.498Z,39.40
2019-04-28T20:14:24.853Z,40.30
2019-04-28T20:16:54.519Z,39.80
2019-04-28T20:19:23.785Z,40.20
2019-04-28T20:21:53.528Z,40.70
2019-04-28T20:24:22.891Z,40.50
2019-04-28T20:26:52.280Z,38.90
2019-04-28T20:29:23.224Z,39.00
2019-04-28T20:31:52.120Z,37.10
2019-04-28T20:34:21.804Z,37.10
2019-04-28T20:36:54.284Z,36.60
2019-04-28T20:39:28.930Z,37.00
2019-04-28T20:41:58.417Z,35.20
2019-04-28T20:44:27.621Z,34.90
2019-04-28T20:46:57.296Z,32.10
2019-04-28T20:49:26.587Z,32.00
2019-04-28T20:51:55.851Z,31.10
2019-04-28T20:54:25.230Z,31.30
2019-04-28T20:56:55.427Z,29.50
2019-04-28T20:59:24.664Z,29.40
2019-04-28T21:01:54.392Z,30.50
2019-04-28T21:04:23.583Z,30.00
2019-04-28T21:06:53.096Z,29.00
2019-04-28T21:09:22.822Z,29.00
2019-04-28T21:11:51.962Z,33.10
2019-04-28T21:14:21.516Z,32.80
2019-04-28T21:16:50.801Z,31.90
2019-04-28T21:19:20.858Z,33.30
2019-04-28T21:21:50.456Z,33.30
2019-04-28T21:24:19.611Z,32.80
2019-04-28T21:26:49.042Z,31.50
2019-04-28T21:29:18.348Z,31.10
2019-04-28T21:31:47.907Z,30.00
2019-04-28T21:34:17.205Z,31.10
2019-04-28T21:36:46.782Z,31.60
2019-04-28T21:39:16.063Z,29.70
2019-04-28T21:41:45.666Z,28.50
2019-04-28T21:44:16.864Z,29.60
2019-04-28T21:46:46.940Z,29.60
2019-04-28T21:49:19.050Z,29.40
2019-04-28T21:51:48.366Z,28.80
2019-04-28T21:54:18.583Z,30.90
2019-04-28T21:56:48.603Z,31.70
2019-04-28T21:59:17.872Z,31.70
2019-04-28T22:01:47.150Z,31.50
2019-04-28T22:04:16.536Z,31.90
2019-04-28T22:06:46.135Z,31.20
2019-04-28T22:09:15.981Z,32.40
2019-04-28T22:11:45.307Z,31.30
2019-04-28T22:14:15.508Z,32.10
2019-04-28T22:16:44.898Z,31.40
2019-04-28T22:19:14.392Z,31.30
2019-04-28T22:21:43.988Z,30.00
2019-04-28T22:27:09.571Z,29.10
2019-04-28T22:29:38.984Z,29.00
2019-04-28T22:32:08.318Z,29.30
2019-04-28T22:34:37.872Z,29.20
2019-04-28T22:37:06.879Z,28.10
2019-04-28T22:39:36.165Z,26.60
2019-04-28T22:42:05.561Z,27.10
2019-04-28T22:44:34.825Z,27.20
2019-04-28T22:47:04.531Z,26.90
2019-04-28T22:49:34.096Z,27.20
2019-04-28T22:52:03.736Z,26.30
2019-04-28T22:54:43.835Z,26.10
2019-04-28T22:57:17.453Z,27.20
2019-04-28T22:59:49.758Z,26.60
2019-04-28T23:02:19.420Z,27.80
2019-04-28T23:04:54.463Z,26.40
2019-04-28T23:07:23.970Z,27.50
2019-04-28T23:09:53.209Z,27.00
2019-04-28T23:12:23.810Z,25.60
2019-04-28T23:14:53.166Z,25.50
2019-04-28T23:17:22.698Z,24.90
2019-04-28T23:19:52.451Z,25.80
2019-04-28T23:22:27.926Z,25.20
2019-04-28T23:24:57.347Z,25.50
2019-04-28T23:27:26.668Z,26.00
2019-04-28T23:29:56.052Z,25.40
2019-04-28T23:32:25.592Z,25.80
2019-04-28T23:34:55.786Z,24.10
2019-04-28T23:37:25.368Z,24.20
2019-04-28T23:39:54.681Z,25.20
2019-04-28T23:42:28.805Z,26.00
2019-04-28T23:44:58.112Z,25.50
2019-04-28T23:47:27.435Z,25.00
2019-04-28T23:49:56.740Z,25.40
2019-04-28T23:52:28.740Z,25.00
2019-04-28T23:55:07.258Z,26.00
2019-04-28T23:57:36.613Z,25.60
